Time;durP1;ratioP1;P1;durP2;ratioP2;P2;SDS_P1;SDS_P2;PMS_P1;PMS_P2;Temp;Humidity;BMP_temperature;BMP_pressure;BME280_temperature;BME280_humidity;BME280_pressure;Samples;Min_cycle;Max_cycle;Signal;HPM_P1;HPM_P2
2022/12/01 00:01:35;;;;;;;;;;;11.90;99.90;;;;;;4979653;28;20372;-73
2022/12/01 00:04:01;;;;;;;;;;;11.80;99.90;;;;;;4988495;28;20318;-74
2022/12/01 00:06:26;;;;;;;;;;;11.90;99.90;;;;;;4975402;28;19920;-73
2022/12/01 00:11:37;;;;;;;;;;;11.70;99.90;;;;;;4967495;28;19973;-73
2022/12/01 00:14:03;;;;;;;;;;;11.60;99.90;;;;;;4973698;28;20283;-72
2022/12/01 00:16:28;;;;;;;;;;;11.70;99.90;;;;;;4970778;28;20340;-73
2022/12/01 00:18:54;;;;;;;;;;;11.70;99.90;;;;;;4966873;28;20032;-73
2022/12/01 00:21:21;;;;;;;;;;;11.60;99.90;;;;;;4964017;28;19933;-75
2022/12/01 00:23:47;;;;;;;;;;;11.50;99.90;;;;;;4964065;28;19973;-73
2022/12/01 00:26:13;;;;;;;;;;;11.50;99.90;;;;;;4962056;28;19922;-74
2022/12/01 00:28:38;;;;;;;;;;;11.50;99.90;;;;;;4964876;28;19910;-73
2022/12/01 00:31:11;;;;;;;;;;;11.50;99.90;;;;;;4983443;28;19924;-74
2022/12/01 00:33:37;;;;;;;;;;;11.50;99.90;;;;;;4965984;28;19914;-74
2022/12/01 00:36:03;;;;;;;;;;;11.50;99.90;;;;;;5020731;28;19910;-74
2022/12/01 00:38:28;;;;;;;;;;;11.50;99.90;;;;;;4967318;28;19945;-74
2022/12/01 00:40:53;;;;;;;;;;;11.50;99.90;;;;;;4968973;28;19918;-75
2022/12/01 00:43:19;;;;;;;;;;;11.60;99.90;;;;;;4974695;28;19922;-74
2022/12/01 00:45:44;;;;;;;;;;;11.60;99.90;;;;;;4975255;28;19995;-75
2022/12/01 00:48:10;;;;;;;;;;;11.60;99.90;;;;;;4968108;28;20495;-73
2022/12/01 00:50:35;;;;;;;;;;;11.70;99.90;;;;;;4968348;28;19969;-73
2022/12/01 00:53:01;;;;;;;;;;;11.80;99.90;;;;;;4978246;28;19990;-75
2022/12/01 00:55:26;;;;;;;;;;;11.80;99.90;;;;;;4969875;28;19918;-73
2022/12/01 00:57:52;;;;;;;;;;;11.80;99.90;;;;;;4973554;28;20237;-73
2022/12/01 01:00:18;;;;;;;;;;;11.80;99.90;;;;;;4973278;28;19918;-75
2022/12/01 01:02:43;;;;;;;;;;;11.80;99.90;;;;;;4973728;28;19909;-74
2022/12/01 01:05:09;;;;;;;;;;;11.70;99.90;;;;;;4975578;28;19921;-74
2022/12/01 01:07:34;;;;;;;;;;;11.70;99.90;;;;;;4978442;28;19914;-75
2022/12/01 01:10:00;;;;;;;;;;;11.60;99.90;;;;;;4975757;28;19909;-74
2022/12/01 01:12:26;;;;;;;;;;;11.60;99.90;;;;;;4972495;28;19926;-74
2022/12/01 01:14:51;;;;;;;;;;;11.70;99.90;;;;;;4972032;28;19914;-74
2022/12/01 01:17:17;;;;;;;;;;;11.60;99.90;;;;;;4960913;28;19953;-74
2022/12/01 01:19:42;;;;;;;;;;;11.60;99.90;;;;;;4975700;28;20250;-72
2022/12/01 01:22:08;;;;;;;;;;;11.60;99.90;;;;;;4961718;28;19936;-73
2022/12/01 01:24:33;;;;;;;;;;;11.60;99.90;;;;;;4968398;28;20048;-73
2022/12/01 01:26:59;;;;;;;;;;;11.80;99.90;;;;;;4971608;28;20004;-74
2022/12/01 01:29:24;;;;;;;;;;;11.80;99.90;;;;;;4968319;28;19914;-74
2022/12/01 01:31:50;;;;;;;;;;;11.90;99.90;;;;;;4985491;28;19910;-74
2022/12/01 01:34:15;;;;;;;;;;;11.90;99.90;;;;;;4959721;28;20190;-73
2022/12/01 01:36:41;;;;;;;;;;;11.80;99.90;;;;;;4967906;28;20166;-74
2022/12/01 01:39:06;;;;;;;;;;;11.80;99.90;;;;;;4976695;28;19924;-73
2022/12/01 01:41:32;;;;;;;;;;;11.90;99.90;;;;;;4965192;28;20427;-74
2022/12/01 01:43:58;;;;;;;;;;;12.00;99.90;;;;;;4966041;28;19941;-73
2022/12/01 01:46:33;;;;;;;;;;;12.00;99.90;;;;;;4971863;28;19986;-73
2022/12/01 01:49:00;;;;;;;;;;;12.00;99.90;;;;;;4966773;28;19922;-73
2022/12/01 01:51:46;;;;;;;;;;;12.00;99.90;;;;;;4971384;28;19938;-73
2022/12/01 01:54:15;;;;;;;;;;;12.00;99.90;;;;;;4978597;28;19914;-74
2022/12/01 01:56:41;;;;;;;;;;;12.00;99.90;;;;;;4985848;28;19921;-74
2022/12/01 01:59:07;;;;;;;;;;;12.00;99.90;;;;;;4967685;28;19990;-73
2022/12/01 02:01:32;;;;;;;;;;;12.20;99.90;;;;;;4964204;28;19942;-73
2022/12/01 02:03:58;;;;;;;;;;;12.10;99.90;;;;;;4967012;28;20000;-73
2022/12/01 02:06:24;;;;;;;;;;;12.00;99.90;;;;;;4999974;28;19914;-73
2022/12/01 02:08:49;;;;;;;;;;;11.90;99.90;;;;;;4976347;28;19921;-73
2022/12/01 02:11:24;;;;;;;;;;;11.90;99.90;;;;;;4961610;28;20210;-73
2022/12/01 02:13:58;;;;;;;;;;;11.90;99.90;;;;;;4964220;28;20384;-72
2022/12/01 02:16:29;;;;;;;;;;;11.90;99.90;;;;;;4965275;28;20273;-73
2022/12/01 02:19:00;;;;;;;;;;;11.90;99.90;;;;;;4961575;28;19921;-73
2022/12/01 02:21:26;;;;;;;;;;;12.00;99.90;;;;;;4994704;28;20282;-74
2022/12/01 02:23:51;;;;;;;;;;;12.00;99.90;;;;;;4961219;28;20080;-74
2022/12/01 02:26:29;;;;;;;;;;;12.00;99.90;;;;;;4964088;28;19969;-71
2022/12/01 02:28:54;;;;;;;;;;;12.10;99.90;;;;;;4959925;28;20383;-71
2022/12/01 02:31:29;;;;;;;;;;;12.20;99.90;;;;;;4964139;28;20120;-72
2022/12/01 02:33:57;;;;;;;;;;;12.20;99.90;;;;;;4963000;28;19918;-72
2022/12/01 02:36:31;;;;;;;;;;;12.30;99.90;;;;;;4967221;28;20269;-71
2022/12/01 02:39:05;;;;;;;;;;;12.40;99.90;;;;;;4965898;28;20361;-71
2022/12/01 02:41:42;;;;;;;;;;;12.40;99.90;;;;;;4966404;28;20298;-71
2022/12/01 02:44:13;;;;;;;;;;;12.50;99.90;;;;;;4972411;28;20059;-72
2022/12/01 02:46:40;;;;;;;;;;;12.60;99.90;;;;;;4969306;28;19914;-71
2022/12/01 02:49:12;;;;;;;;;;;12.70;99.90;;;;;;4967233;28;19914;-72
2022/12/01 02:51:38;;;;;;;;;;;12.80;99.90;;;;;;4981025;28;20000;-72
2022/12/01 02:54:04;;;;;;;;;;;12.70;99.90;;;;;;4968000;28;19910;-72
2022/12/01 02:56:30;;;;;;;;;;;12.90;99.90;;;;;;4968750;28;20041;-71
2022/12/01 02:58:55;;;;;;;;;;;12.90;99.90;;;;;;4963501;28;20003;-71
2022/12/01 03:01:21;;;;;;;;;;;12.90;99.90;;;;;;4961483;28;20300;-72
2022/12/01 03:03:49;;;;;;;;;;;13.00;99.90;;;;;;4963605;28;19911;-72
2022/12/01 03:06:27;;;;;;;;;;;13.00;99.90;;;;;;4967284;28;19929;-72
2022/12/01 03:08:55;;;;;;;;;;;13.10;99.90;;;;;;4964525;28;19921;-71
2022/12/01 03:11:29;;;;;;;;;;;13.10;99.90;;;;;;4964730;28;19910;-72
2022/12/01 03:14:00;;;;;;;;;;;13.10;99.90;;;;;;4962369;28;19914;-72
2022/12/01 03:16:31;;;;;;;;;;;13.10;99.90;;;;;;4966395;28;20372;-72
2022/12/01 03:19:05;;;;;;;;;;;13.20;99.90;;;;;;4965075;28;19961;-72
2022/12/01 03:21:33;;;;;;;;;;;13.30;99.90;;;;;;4960905;28;20204;-72
2022/12/01 03:24:00;;;;;;;;;;;13.30;99.90;;;;;;4965184;28;19910;-71
2022/12/01 03:26:28;;;;;;;;;;;13.30;99.90;;;;;;4965936;28;19986;-72
2022/12/01 03:28:56;;;;;;;;;;;13.40;99.90;;;;;;4984725;28;19936;-72
2022/12/01 03:31:24;;;;;;;;;;;13.50;99.90;;;;;;4965914;28;20178;-71
2022/12/01 03:33:54;;;;;;;;;;;13.50;99.90;;;;;;4970450;28;19992;-72
2022/12/01 03:36:24;;;;;;;;;;;13.50;99.90;;;;;;4963331;28;19910;-72
2022/12/01 03:38:53;;;;;;;;;;;13.50;99.90;;;;;;4968462;28;19921;-72
2022/12/01 03:41:21;;;;;;;;;;;13.50;99.90;;;;;;4970624;28;19921;-71
2022/12/01 03:44:04;;;;;;;;;;;13.50;99.90;;;;;;4966974;28;19917;-71
2022/12/01 03:46:45;;;;;;;;;;;13.50;99.90;;;;;;4978454;28;19925;-72
2022/12/01 03:49:12;;;;;;;;;;;13.60;99.90;;;;;;4980666;28;20437;-73
2022/12/01 03:51:57;;;;;;;;;;;13.60;99.90;;;;;;4961770;28;19921;-71
2022/12/01 03:54:29;;;;;;;;;;;13.70;99.90;;;;;;4970873;28;19945;-72
2022/12/01 03:56:56;;;;;;;;;;;13.50;99.90;;;;;;4963063;28;19918;-72
2022/12/01 03:59:22;;;;;;;;;;;13.60;99.90;;;;;;4965579;28;19921;-72
2022/12/01 04:01:48;;;;;;;;;;;13.60;99.90;;;;;;4968163;28;19918;-73
2022/12/01 04:04:14;;;;;;;;;;;13.70;99.90;;;;;;4967643;28;20509;-73
2022/12/01 04:06:41;;;;;;;;;;;13.80;99.90;;;;;;4966731;28;20005;-72
2022/12/01 04:09:06;;;;;;;;;;;13.60;99.90;;;;;;4967891;28;19921;-74
2022/12/01 04:14:16;;;;;;;;;;;13.70;99.90;;;;;;4973024;28;19934;-73
2022/12/01 04:16:41;;;;;;;;;;;13.70;99.90;;;;;;4983684;28;19914;-74
2022/12/01 04:19:07;;;;;;;;;;;13.70;99.90;;;;;;4969380;28;19914;-74
2022/12/01 04:21:33;;;;;;;;;;;13.70;99.90;;;;;;4981216;28;19910;-74
2022/12/01 04:24:01;;;;;;;;;;;13.80;99.90;;;;;;4968552;28;19909;-73
2022/12/01 04:26:31;;;;;;;;;;;13.80;99.90;;;;;;4974259;28;19918;-73
2022/12/01 04:28:57;;;;;;;;;;;13.80;99.90;;;;;;4966492;28;20395;-72
2022/12/01 04:31:22;;;;;;;;;;;13.80;99.90;;;;;;4967063;28;20353;-73
2022/12/01 04:33:48;;;;;;;;;;;13.70;99.90;;;;;;4962544;28;19968;-73
2022/12/01 04:36:13;;;;;;;;;;;13.80;99.90;;;;;;4968777;28;19957;-74
2022/12/01 04:38:39;;;;;;;;;;;13.70;99.90;;;;;;4967090;28;19964;-74
2022/12/01 04:41:08;;;;;;;;;;;13.70;99.90;;;;;;4966586;28;19914;-72
2022/12/01 04:43:34;;;;;;;;;;;13.70;99.90;;;;;;4962608;28;19979;-74
2022/12/01 04:45:59;;;;;;;;;;;13.70;99.90;;;;;;4969525;28;19910;-74
2022/12/01 04:48:24;;;;;;;;;;;13.70;99.90;;;;;;4967208;28;19910;-74
2022/12/01 04:50:50;;;;;;;;;;;13.60;99.90;;;;;;4964716;28;19918;-74
2022/12/01 04:53:15;;;;;;;;;;;13.70;99.90;;;;;;4968311;28;19950;-74
2022/12/01 04:55:41;;;;;;;;;;;13.60;99.90;;;;;;4971805;28;20688;-74
2022/12/01 04:58:06;;;;;;;;;;;13.60;99.90;;;;;;4967503;28;19914;-74
2022/12/01 05:00:32;;;;;;;;;;;13.60;99.90;;;;;;4985426;28;19918;-74
2022/12/01 05:02:58;;;;;;;;;;;13.60;99.90;;;;;;4962716;28;20471;-73
2022/12/01 05:05:24;;;;;;;;;;;13.50;99.90;;;;;;4969496;28;19910;-73
2022/12/01 05:07:50;;;;;;;;;;;13.50;99.90;;;;;;4967481;28;19918;-74
2022/12/01 05:10:17;;;;;;;;;;;13.40;99.90;;;;;;4971232;28;20185;-74
2022/12/01 05:12:45;;;;;;;;;;;13.40;99.90;;;;;;4976114;28;19914;-74
2022/12/01 05:15:11;;;;;;;;;;;13.50;99.90;;;;;;4987910;28;19946;-74
2022/12/01 05:17:36;;;;;;;;;;;13.40;99.90;;;;;;4977671;28;19910;-74
2022/12/01 05:22:47;;;;;;;;;;;13.40;99.90;;;;;;4965990;28;20352;-73
2022/12/01 05:25:12;;;;;;;;;;;13.30;99.90;;;;;;4970395;28;20371;-74
2022/12/01 05:27:38;;;;;;;;;;;13.40;99.90;;;;;;4965313;28;19918;-75
2022/12/01 05:30:03;;;;;;;;;;;13.50;99.90;;;;;;4965830;28;19918;-74
2022/12/01 05:32:29;;;;;;;;;;;13.40;99.90;;;;;;4971351;28;20327;-74
2022/12/01 05:34:54;;;;;;;;;;;13.40;99.90;;;;;;4965356;28;19982;-72
2022/12/01 05:37:20;;;;;;;;;;;13.30;99.90;;;;;;4975275;28;20061;-74
2022/12/01 05:39:45;;;;;;;;;;;13.30;99.90;;;;;;4965282;28;20048;-74
2022/12/01 05:42:11;;;;;;;;;;;13.30;99.90;;;;;;4967590;28;19956;-74
2022/12/01 05:44:36;;;;;;;;;;;13.30;99.90;;;;;;4974949;28;19925;-74
2022/12/01 05:47:02;;;;;;;;;;;13.30;99.90;;;;;;4970370;28;19914;-73
2022/12/01 05:49:27;;;;;;;;;;;13.40;99.90;;;;;;4970201;28;19978;-74
2022/12/01 05:51:53;;;;;;;;;;;13.30;99.90;;;;;;4969374;28;20066;-74
2022/12/01 05:54:18;;;;;;;;;;;13.40;99.90;;;;;;4972549;28;19918;-74
2022/12/01 05:56:44;;;;;;;;;;;13.40;99.90;;;;;;4974922;28;20498;-75
2022/12/01 05:59:09;;;;;;;;;;;13.40;99.90;;;;;;4964096;28;19974;-73
2022/12/01 06:01:35;;;;;;;;;;;13.50;99.90;;;;;;4972025;28;19929;-74
2022/12/01 06:04:00;;;;;;;;;;;13.40;99.90;;;;;;4977557;28;20407;-73
2022/12/01 06:06:26;;;;;;;;;;;13.30;99.90;;;;;;4990398;28;20458;-74
2022/12/01 06:08:51;;;;;;;;;;;13.30;99.90;;;;;;4982173;28;19933;-75
2022/12/01 06:11:16;;;;;;;;;;;13.20;99.90;;;;;;4978763;28;19917;-76
2022/12/01 06:13:42;;;;;;;;;;;13.20;99.90;;;;;;4985290;28;20277;-74
2022/12/01 06:16:07;;;;;;;;;;;13.10;99.90;;;;;;4995253;28;19914;-75
2022/12/01 06:18:34;;;;;;;;;;;13.10;99.90;;;;;;4975049;28;19993;-78
2022/12/01 06:21:00;;;;;;;;;;;13.10;99.90;;;;;;4966940;28;20276;-75
2022/12/01 06:23:26;;;;;;;;;;;13.10;99.90;;;;;;4968247;28;20467;-74
2022/12/01 06:25:51;;;;;;;;;;;13.00;99.90;;;;;;4973011;28;20259;-74
2022/12/01 06:28:17;;;;;;;;;;;13.00;99.90;;;;;;4972034;28;20400;-74
2022/12/01 06:30:42;;;;;;;;;;;12.90;99.90;;;;;;4972563;28;19917;-74
2022/12/01 06:33:08;;;;;;;;;;;12.90;99.90;;;;;;4999938;28;19933;-75
2022/12/01 06:35:34;;;;;;;;;;;12.90;99.90;;;;;;4972784;28;19989;-74
2022/12/01 06:37:59;;;;;;;;;;;12.90;99.90;;;;;;4987491;28;19938;-76
2022/12/01 06:40:25;;;;;;;;;;;12.90;99.90;;;;;;5011112;28;19910;-75
2022/12/01 06:42:50;;;;;;;;;;;12.90;99.90;;;;;;4971961;28;19969;-73
2022/12/01 06:45:15;;;;;;;;;;;13.00;99.90;;;;;;4972201;28;19957;-74
2022/12/01 06:47:41;;;;;;;;;;;12.90;99.90;;;;;;4974082;28;19941;-74
2022/12/01 06:50:08;;;;;;;;;;;13.00;99.90;;;;;;4969611;28;19949;-76
2022/12/01 06:52:34;;;;;;;;;;;13.00;99.90;;;;;;4966801;28;19918;-73
2022/12/01 06:55:02;;;;;;;;;;;13.00;99.90;;;;;;4969524;28;19911;-76
2022/12/01 06:57:28;;;;;;;;;;;13.00;99.90;;;;;;4974307;28;19960;-74
2022/12/01 06:59:53;;;;;;;;;;;13.00;99.90;;;;;;4967757;28;19958;-75
2022/12/01 07:02:19;;;;;;;;;;;13.00;99.90;;;;;;4965481;28;19925;-75
2022/12/01 07:04:44;;;;;;;;;;;13.00;99.90;;;;;;4979398;28;19925;-75
2022/12/01 07:07:11;;;;;;;;;;;13.00;99.90;;;;;;4969737;28;20354;-74
2022/12/01 07:09:36;;;;;;;;;;;13.00;99.90;;;;;;4977972;28;19960;-74
2022/12/01 07:12:02;;;;;;;;;;;13.00;99.90;;;;;;4969698;28;19910;-75
2022/12/01 07:14:27;;;;;;;;;;;13.00;99.90;;;;;;4972486;28;19914;-74
2022/12/01 07:16:53;;;;;;;;;;;13.10;99.90;;;;;;4977692;28;20259;-75
2022/12/01 07:19:18;;;;;;;;;;;13.10;99.90;;;;;;4973942;28;19914;-74
2022/12/01 07:21:44;;;;;;;;;;;13.10;99.90;;;;;;4973122;28;20307;-75
2022/12/01 07:24:11;;;;;;;;;;;13.20;99.90;;;;;;4974846;28;20641;-74
2022/12/01 07:26:37;;;;;;;;;;;13.10;99.90;;;;;;4969188;28;20208;-76
2022/12/01 07:29:03;;;;;;;;;;;13.10;99.90;;;;;;4974940;28;19944;-74
2022/12/01 07:31:28;;;;;;;;;;;13.10;99.90;;;;;;4971673;28;20367;-75
2022/12/01 07:33:54;;;;;;;;;;;13.10;99.90;;;;;;4967609;28;20911;-75
2022/12/01 07:36:19;;;;;;;;;;;13.10;99.90;;;;;;4984580;28;19917;-74
2022/12/01 07:38:45;;;;;;;;;;;13.10;99.90;;;;;;4971146;28;20437;-75
2022/12/01 07:41:12;;;;;;;;;;;12.90;99.90;;;;;;4972859;28;19918;-75
2022/12/01 07:43:37;;;;;;;;;;;12.90;99.90;;;;;;4971614;28;19981;-75
2022/12/01 07:46:08;;;;;;;;;;;12.90;99.90;;;;;;4985872;28;19949;-74
2022/12/01 07:48:36;;;;;;;;;;;12.90;99.90;;;;;;4968628;28;19914;-75
2022/12/01 07:51:02;;;;;;;;;;;12.80;99.90;;;;;;4969802;28;19918;-74
2022/12/01 07:53:28;;;;;;;;;;;12.80;99.90;;;;;;4971457;28;19910;-75
2022/12/01 07:55:53;;;;;;;;;;;12.90;99.90;;;;;;4971726;28;19909;-74
2022/12/01 07:58:18;;;;;;;;;;;12.90;99.90;;;;;;4968454;28;20442;-75
2022/12/01 08:00:44;;;;;;;;;;;12.90;99.90;;;;;;4973404;28;19932;-74
2022/12/01 08:03:09;;;;;;;;;;;12.90;99.90;;;;;;4971246;28;20067;-74
2022/12/01 08:05:35;;;;;;;;;;;12.90;99.90;;;;;;4969900;28;19914;-74
2022/12/01 08:08:00;;;;;;;;;;;13.00;99.90;;;;;;4971692;28;19918;-74
2022/12/01 08:10:26;;;;;;;;;;;13.00;99.90;;;;;;4968789;28;19910;-74
2022/12/01 08:12:51;;;;;;;;;;;13.00;99.90;;;;;;4972668;28;19963;-75
2022/12/01 08:15:17;;;;;;;;;;;13.10;99.90;;;;;;4980393;28;20008;-75
2022/12/01 08:17:42;;;;;;;;;;;13.10;99.90;;;;;;4968291;28;20338;-75
2022/12/01 08:20:08;;;;;;;;;;;13.10;99.90;;;;;;4966842;28;19918;-74
2022/12/01 08:22:34;;;;;;;;;;;13.10;99.90;;;;;;4966955;28;19911;-74
2022/12/01 08:24:59;;;;;;;;;;;13.10;99.90;;;;;;4960702;28;20326;-75
2022/12/01 08:27:25;;;;;;;;;;;13.10;99.90;;;;;;4966353;28;20426;-73
2022/12/01 08:29:50;;;;;;;;;;;13.20;99.90;;;;;;4970352;28;20383;-74
2022/12/01 08:32:16;;;;;;;;;;;13.20;99.90;;;;;;4976095;28;19950;-74
2022/12/01 08:34:42;;;;;;;;;;;13.10;99.90;;;;;;4975834;28;20169;-74
2022/12/01 08:37:08;;;;;;;;;;;13.10;99.90;;;;;;5004050;28;20312;-75
2022/12/01 08:39:33;;;;;;;;;;;13.10;99.90;;;;;;4971411;28;19922;-74
2022/12/01 08:41:59;;;;;;;;;;;13.10;99.90;;;;;;4974319;28;19910;-74
2022/12/01 08:44:24;;;;;;;;;;;13.20;99.90;;;;;;4969986;28;20081;-75
2022/12/01 08:46:50;;;;;;;;;;;13.20;99.90;;;;;;4968018;28;19913;-74
2022/12/01 08:49:15;;;;;;;;;;;13.20;99.90;;;;;;4966426;28;19979;-74
2022/12/01 08:51:41;;;;;;;;;;;13.20;99.90;;;;;;4966477;28;19929;-75
2022/12/01 08:54:08;;;;;;;;;;;13.20;99.90;;;;;;4965630;28;20024;-76
2022/12/01 08:56:35;;;;;;;;;;;13.30;99.90;;;;;;4964741;28;19910;-74
2022/12/01 08:59:01;;;;;;;;;;;13.20;99.90;;;;;;4966343;28;20171;-74
2022/12/01 09:01:26;;;;;;;;;;;13.30;99.90;;;;;;4965475;28;20681;-75
2022/12/01 09:04:04;;;;;;;;;;;13.30;99.90;;;;;;4961754;28;19922;-77
2022/12/01 09:06:30;;;;;;;;;;;13.40;99.90;;;;;;4964466;28;19922;-74
2022/12/01 09:08:57;;;;;;;;;;;13.30;99.90;;;;;;4963214;28;20459;-74
2022/12/01 09:11:22;;;;;;;;;;;13.20;99.90;;;;;;4963613;28;19969;-76
2022/12/01 09:13:48;;;;;;;;;;;13.30;99.90;;;;;;4966716;28;20880;-75
2022/12/01 09:16:15;;;;;;;;;;;13.30;99.90;;;;;;4969080;28;19937;-75
2022/12/01 09:18:41;;;;;;;;;;;13.40;99.90;;;;;;4968732;28;19920;-74
2022/12/01 09:21:14;;;;;;;;;;;13.30;99.90;;;;;;4972063;28;20372;-73
2022/12/01 09:23:39;;;;;;;;;;;13.30;99.90;;;;;;4969242;28;19910;-75
2022/12/01 09:26:06;;;;;;;;;;;13.40;99.90;;;;;;4976520;28;20419;-75
2022/12/01 09:28:31;;;;;;;;;;;13.30;99.90;;;;;;4969215;28;20031;-74
2022/12/01 09:31:02;;;;;;;;;;;13.20;99.90;;;;;;4968965;28;19910;-74
2022/12/01 09:33:27;;;;;;;;;;;13.20;99.90;;;;;;4965123;28;19921;-75
2022/12/01 09:35:56;;;;;;;;;;;13.20;99.90;;;;;;4964479;28;19910;-75
2022/12/01 09:38:22;;;;;;;;;;;13.20;99.90;;;;;;4970908;28;20383;-74
2022/12/01 09:40:47;;;;;;;;;;;13.20;99.90;;;;;;4962211;28;19929;-74
2022/12/01 09:43:16;;;;;;;;;;;13.00;99.90;;;;;;4971369;28;19910;-74
2022/12/01 09:45:46;;;;;;;;;;;13.10;99.90;;;;;;4960622;28;19933;-75
2022/12/01 09:48:26;;;;;;;;;;;13.00;99.90;;;;;;4966034;28;19960;-77
2022/12/01 09:50:51;;;;;;;;;;;12.90;99.90;;;;;;4960510;28;20630;-74
2022/12/01 09:53:20;;;;;;;;;;;12.80;99.90;;;;;;4977118;28;19918;-77
2022/12/01 09:55:45;;;;;;;;;;;12.80;99.90;;;;;;4963441;28;19910;-78
2022/12/01 09:58:16;;;;;;;;;;;12.70;99.90;;;;;;4966604;28;19918;-73
2022/12/01 10:00:43;;;;;;;;;;;12.80;99.90;;;;;;4968127;28;19922;-75
2022/12/01 10:03:27;;;;;;;;;;;12.80;99.90;;;;;;4973529;28;19964;-75
2022/12/01 10:05:54;;;;;;;;;;;12.90;99.90;;;;;;4968338;28;20725;-75
2022/12/01 10:08:29;;;;;;;;;;;12.70;99.90;;;;;;4978505;28;20192;-77
2022/12/01 10:10:57;;;;;;;;;;;12.60;99.90;;;;;;4971109;28;20371;-74
2022/12/01 10:13:27;;;;;;;;;;;12.60;99.90;;;;;;4966084;28;19914;-75
2022/12/01 10:15:52;;;;;;;;;;;12.80;99.90;;;;;;4970845;28;19960;-74
2022/12/01 10:18:17;;;;;;;;;;;12.60;99.90;;;;;;4975252;28;19910;-74
2022/12/01 10:20:46;;;;;;;;;;;12.30;99.90;;;;;;4982827;28;19922;-75
2022/12/01 10:23:23;;;;;;;;;;;12.10;99.90;;;;;;4969518;28;20423;-74
2022/12/01 10:25:56;;;;;;;;;;;12.00;99.90;;;;;;4973585;28;19918;-74
2022/12/01 10:28:29;;;;;;;;;;;11.90;99.90;;;;;;4974642;28;20335;-73
2022/12/01 10:31:00;;;;;;;;;;;11.70;99.90;;;;;;4971470;28;19921;-74
2022/12/01 10:33:29;;;;;;;;;;;11.70;99.90;;;;;;4971744;28;19910;-71
2022/12/01 10:35:55;;;;;;;;;;;11.70;99.90;;;;;;4966510;28;19948;-74
2022/12/01 10:38:24;;;;;;;;;;;11.70;99.90;;;;;;4967093;28;19913;-74
2022/12/01 10:40:50;;;;;;;;;;;11.60;99.90;;;;;;4966334;28;20407;-72
2022/12/01 10:43:15;;;;;;;;;;;11.50;99.90;;;;;;4967873;28;19997;-71
2022/12/01 10:45:42;;;;;;;;;;;11.40;99.90;;;;;;4971642;28;19953;-74
2022/12/01 10:48:17;;;;;;;;;;;11.20;99.90;;;;;;4969670;28;19941;-72
2022/12/01 10:51:06;;;;;;;;;;;11.10;99.90;;;;;;4986854;28;20025;-73
2022/12/01 10:53:32;;;;;;;;;;;11.20;99.90;;;;;;4962852;28;20095;-73
2022/12/01 10:56:18;;;;;;;;;;;10.90;99.90;;;;;;4970682;28;19953;-71
2022/12/01 10:58:44;;;;;;;;;;;10.70;99.90;;;;;;4973546;28;20009;-73
2022/12/01 11:01:15;;;;;;;;;;;10.50;99.90;;;;;;4970003;28;20005;-73
2022/12/01 11:03:40;;;;;;;;;;;10.50;99.90;;;;;;4968336;28;19918;-72
2022/12/01 11:06:06;;;;;;;;;;;10.50;99.90;;;;;;4984628;28;19921;-72
2022/12/01 11:08:39;;;;;;;;;;;10.40;99.90;;;;;;4967924;28;19922;-72
2022/12/01 11:11:05;;;;;;;;;;;10.30;99.90;;;;;;4967763;28;20554;-73
2022/12/01 11:13:33;;;;;;;;;;;10.30;99.90;;;;;;4970691;28;20433;-73
2022/12/01 11:16:00;;;;;;;;;;;10.40;99.90;;;;;;4974790;28;20337;-73
2022/12/01 11:18:28;;;;;;;;;;;10.30;99.90;;;;;;4970915;28;20123;-73
2022/12/01 11:21:14;;;;;;;;;;;10.50;99.90;;;;;;4986796;28;19922;-72
2022/12/01 11:23:50;;;;;;;;;;;10.10;99.90;;;;;;4971907;28;19910;-73
2022/12/01 11:26:23;;;;;;;;;;;9.80;99.90;;;;;;5002845;28;19917;-73
2022/12/01 11:28:51;;;;;;;;;;;9.50;99.90;;;;;;4985397;28;19968;-74
2022/12/01 11:31:17;;;;;;;;;;;9.30;99.90;;;;;;4966415;28;19960;-72
2022/12/01 11:33:50;;;;;;;;;;;9.30;99.90;;;;;;4972827;28;19972;-72
2022/12/01 11:36:21;;;;;;;;;;;9.00;99.90;;;;;;4966548;28;19933;-72
2022/12/01 11:38:46;;;;;;;;;;;8.80;99.90;;;;;;4974495;28;19910;-75
2022/12/01 11:41:24;;;;;;;;;;;8.90;99.90;;;;;;4974301;28;19920;-75
2022/12/01 11:43:49;;;;;;;;;;;8.60;99.90;;;;;;4966514;28;19918;-74
2022/12/01 11:46:15;;;;;;;;;;;8.60;99.90;;;;;;4970120;28;20335;-75
2022/12/01 11:48:55;;;;;;;;;;;8.60;99.90;;;;;;4967184;28;20291;-74
2022/12/01 11:51:21;;;;;;;;;;;8.90;99.90;;;;;;4977789;28;19925;-74
2022/12/01 11:53:46;;;;;;;;;;;8.90;99.90;;;;;;4985800;28;19910;-74
2022/12/01 11:56:22;;;;;;;;;;;8.80;99.90;;;;;;4992366;28;20109;-73
2022/12/01 11:58:48;;;;;;;;;;;8.70;99.90;;;;;;4994014;28;19921;-73
2022/12/01 12:01:32;;;;;;;;;;;8.30;99.90;;;;;;4985481;28;19922;-71
2022/12/01 12:04:12;;;;;;;;;;;8.30;99.90;;;;;;4982380;28;20242;-75
2022/12/01 12:06:37;;;;;;;;;;;8.70;99.90;;;;;;4973664;28;19918;-73
2022/12/01 12:09:20;;;;;;;;;;;8.60;99.90;;;;;;4970019;28;19937;-73
2022/12/01 12:11:48;;;;;;;;;;;8.70;99.90;;;;;;4975930;28;19910;-73
2022/12/01 12:14:24;;;;;;;;;;;8.80;99.90;;;;;;4976115;28;19945;-72
2022/12/01 12:17:09;;;;;;;;;;;8.60;99.90;;;;;;4971611;28;20045;-74
2022/12/01 12:19:34;;;;;;;;;;;8.80;99.90;;;;;;4971963;28;19913;-73
2022/12/01 12:22:14;;;;;;;;;;;9.10;99.90;;;;;;4978996;28;19920;-72
2022/12/01 12:24:46;;;;;;;;;;;8.60;99.90;;;;;;4981587;28;20339;-76
2022/12/01 12:27:14;;;;;;;;;;;8.20;99.90;;;;;;4981947;28;19914;-72
2022/12/01 12:29:45;;;;;;;;;;;8.10;99.90;;;;;;4973174;28;19952;-72
2022/12/01 12:32:11;;;;;;;;;;;8.10;99.90;;;;;;4975299;28;19914;-74
2022/12/01 12:34:36;;;;;;;;;;;8.10;99.90;;;;;;4971500;28;19914;-74
2022/12/01 12:37:19;;;;;;;;;;;8.00;99.90;;;;;;4976031;28;19950;-74
2022/12/01 12:40:03;;;;;;;;;;;8.00;99.90;;;;;;4972188;28;19914;-74
2022/12/01 12:42:32;;;;;;;;;;;8.20;99.90;;;;;;5000941;28;20032;-74
2022/12/01 12:45:05;;;;;;;;;;;8.10;99.90;;;;;;4974931;28;19916;-73
2022/12/01 12:47:30;;;;;;;;;;;7.80;99.90;;;;;;4973063;28;19918;-74
2022/12/01 12:50:10;;;;;;;;;;;7.80;99.90;;;;;;5012402;28;20015;-76
2022/12/01 12:52:40;;;;;;;;;;;7.70;99.90;;;;;;4986049;28;20434;-75
2022/12/01 12:55:17;;;;;;;;;;;7.90;99.90;;;;;;4982890;28;19914;-75
2022/12/01 12:57:50;;;;;;;;;;;7.70;99.90;;;;;;4983171;28;19978;-74
2022/12/01 13:00:16;;;;;;;;;;;7.60;99.90;;;;;;4977626;28;19929;-73
2022/12/01 13:02:52;;;;;;;;;;;7.70;99.90;;;;;;4972251;28;19918;-73
2022/12/01 13:05:38;;;;;;;;;;;7.50;99.90;;;;;;4974072;28;19985;-73
2022/12/01 13:08:10;;;;;;;;;;;7.60;99.90;;;;;;4969586;28;19928;-73
2022/12/01 13:10:38;;;;;;;;;;;7.60;99.90;;;;;;4971778;28;19977;-74
2022/12/01 13:13:11;;;;;;;;;;;7.70;99.90;;;;;;4970466;28;19914;-74
2022/12/01 13:15:37;;;;;;;;;;;7.60;99.90;;;;;;4970670;28;19925;-74
2022/12/01 13:18:15;;;;;;;;;;;7.50;99.90;;;;;;4975910;28;19918;-74
2022/12/01 13:20:42;;;;;;;;;;;7.60;99.90;;;;;;4970678;28;19921;-73
2022/12/01 13:23:13;;;;;;;;;;;7.50;99.90;;;;;;4966851;28;20426;-73
2022/12/01 13:25:39;;;;;;;;;;;7.40;99.90;;;;;;4972010;28;20261;-74
2022/12/01 13:28:13;;;;;;;;;;;7.40;99.90;;;;;;4971163;28;19957;-73
2022/12/01 13:30:38;;;;;;;;;;;7.50;99.90;;;;;;4973913;28;19917;-75
2022/12/01 13:33:05;;;;;;;;;;;7.50;99.90;;;;;;4968879;28;19913;-73
2022/12/01 13:35:37;;;;;;;;;;;7.50;99.90;;;;;;4974941;28;20017;-74
2022/12/01 13:38:19;;;;;;;;;;;7.50;99.90;;;;;;4967770;28;20006;-74
2022/12/01 13:40:45;;;;;;;;;;;7.50;99.90;;;;;;4968602;28;19925;-75
2022/12/01 13:43:29;;;;;;;;;;;7.60;99.90;;;;;;4970477;28;19913;-73
2022/12/01 13:46:00;;;;;;;;;;;7.70;99.90;;;;;;4973757;28;20025;-74
2022/12/01 13:48:48;;;;;;;;;;;7.70;99.90;;;;;;4966322;28;20588;-74
2022/12/01 13:51:14;;;;;;;;;;;7.70;99.90;;;;;;4971007;28;19929;-74
2022/12/01 13:53:56;;;;;;;;;;;7.60;99.90;;;;;;4966688;28;19910;-74
2022/12/01 13:56:22;;;;;;;;;;;7.70;99.90;;;;;;4962315;28;19910;-73
2022/12/01 13:58:51;;;;;;;;;;;7.50;99.90;;;;;;4961796;28;20329;-75
2022/12/01 14:01:20;;;;;;;;;;;7.40;99.90;;;;;;4920038;28;19926;-75
2022/12/01 14:04:01;;;;;;;;;;;7.50;99.90;;;;;;4964920;28;19910;-74
2022/12/01 14:06:27;;;;;;;;;;;7.40;99.90;;;;;;4971413;28;20001;-75
2022/12/01 14:08:57;;;;;;;;;;;7.50;99.90;;;;;;4971055;28;20216;-75
2022/12/01 14:11:24;;;;;;;;;;;7.50;99.90;;;;;;4967239;28;19977;-74
2022/12/01 14:13:52;;;;;;;;;;;7.50;99.90;;;;;;4971786;28;20423;-76
2022/12/01 14:16:17;;;;;;;;;;;7.70;99.90;;;;;;4973111;28;19911;-74
2022/12/01 14:19:03;;;;;;;;;;;7.60;99.90;;;;;;4974532;28;19918;-74
2022/12/01 14:21:39;;;;;;;;;;;7.60;99.90;;;;;;4972884;28;19968;-79
2022/12/01 14:24:05;;;;;;;;;;;7.70;99.90;;;;;;4971415;28;19918;-75
2022/12/01 14:26:31;;;;;;;;;;;7.60;99.90;;;;;;4972284;28;19914;-75
2022/12/01 14:28:59;;;;;;;;;;;7.60;99.90;;;;;;4972881;28;19917;-73
2022/12/01 14:31:34;;;;;;;;;;;7.50;99.90;;;;;;4975379;28;20450;-74
2022/12/01 14:34:02;;;;;;;;;;;7.40;99.90;;;;;;4973708;28;19961;-77